Time;durP1;ratioP1;P1;durP2;ratioP2;P2;SDS_P1;SDS_P2;PMS_P1;PMS_P2;Temp;Humidity;BMP_temperature;BMP_pressure;BME280_temperature;BME280_humidity;BME280_pressure;Samples;Min_cycle;Max_cycle;Signal;HPM_P1;HPM_P2
2022/08/16 00:00:09;;;;;;;24.15;17.70;;;;;;;21.46;82.28;99401.34;5130087;27;20038;-31
2022/08/16 00:02:35;;;;;;;23.20;18.17;;;;;;;21.37;82.59;99409.41;5130955;27;20027;-33
2022/08/16 00:05:01;;;;;;;26.02;18.50;;;;;;;21.49;81.44;99376.31;5131437;27;20035;-29
2022/08/16 00:07:28;;;;;;;22.85;17.30;;;;;;;21.78;79.79;99391.34;5129837;27;20033;-30
2022/08/16 00:09:53;;;;;;;25.38;17.77;;;;;;;21.93;79.01;99415.41;5129798;27;20442;-31
2022/08/16 00:12:19;;;;;;;25.35;17.38;;;;;;;21.50;80.18;99391.50;5131171;27;20052;-36
2022/08/16 00:14:45;;;;;;;24.90;17.13;;;;;;;21.31;82.41;99417.94;5130727;27;20463;-29
2022/08/16 00:17:11;;;;;;;22.73;17.30;;;;;;;21.53;81.26;99409.84;5130854;27;20055;-30
2022/08/16 00:19:36;;;;;;;23.85;17.67;;;;;;;21.57;80.46;99408.13;5131355;27;20500;-29
2022/08/16 00:22:02;;;;;;;23.52;16.95;;;;;;;21.70;80.15;99419.22;5131192;27;20076;-32
2022/08/16 00:24:28;;;;;;;25.30;17.95;;;;;;;21.67;79.50;99416.03;5130944;27;20031;-30
2022/08/16 00:26:54;;;;;;;20.85;16.38;;;;;;;21.55;79.41;99418.50;5129436;27;20585;-30
2022/08/16 00:29:20;;;;;;;21.27;16.48;;;;;;;21.46;79.76;99434.72;5130963;27;20102;-29
2022/08/16 00:31:49;;;;;;;24.05;16.77;;;;;;;21.24;80.21;99427.31;5129310;27;20127;-28
2022/08/16 00:34:15;;;;;;;23.27;16.33;;;;;;;21.57;78.92;99446.13;5129626;27;20027;-31
2022/08/16 00:36:41;;;;;;;19.98;14.98;;;;;;;21.52;78.72;99434.59;5130733;27;20034;-29
2022/08/16 00:39:07;;;;;;;22.90;15.05;;;;;;;21.50;78.60;99444.97;5129354;27;20034;-34
2022/08/16 00:41:33;;;;;;;20.05;15.07;;;;;;;21.47;77.54;99443.63;5129355;27;20410;-29
2022/08/16 00:44:02;;;;;;;17.67;13.55;;;;;;;21.54;77.40;99446.75;5129292;27;20027;-29
2022/08/16 00:46:40;;;;;;;17.00;12.57;;;;;;;21.54;76.56;99445.94;5128556;27;20055;-33
2022/08/16 00:49:08;;;;;;;16.25;12.20;;;;;;;21.30;76.71;99429.91;5129210;27;20027;-29
2022/08/16 00:51:33;;;;;;;16.92;12.80;;;;;;;21.30;76.47;99424.50;5130444;27;20023;-29
2022/08/16 00:53:59;;;;;;;15.32;12.02;;;;;;;21.41;76.09;99444.84;5130184;27;20098;-29
2022/08/16 00:56:31;;;;;;;15.95;12.20;;;;;;;21.35;76.31;99444.16;5130415;27;20035;-32
2022/08/16 00:58:56;;;;;;;15.65;12.40;;;;;;;21.41;75.33;99452.97;5128953;27;20027;-29
2022/08/16 01:01:22;;;;;;;17.73;12.85;;;;;;;21.19;75.65;99432.84;5130649;27;20034;-34
2022/08/16 01:03:51;;;;;;;18.05;12.43;;;;;;;21.22;75.97;99472.09;5129943;27;20024;-31
2022/08/16 01:06:18;;;;;;;15.75;11.82;;;;;;;21.20;76.49;99471.59;5128877;27;20114;-32
2022/08/16 01:08:47;;;;;;;15.75;12.15;;;;;;;21.05;75.87;99468.13;5128564;27;20019;-30
2022/08/16 01:11:13;;;;;;;16.92;11.43;;;;;;;20.93;76.20;99472.44;5130140;27;20619;-28
2022/08/16 01:13:40;;;;;;;17.63;12.07;;;;;;;20.55;77.39;99448.22;5130384;27;20094;-29
2022/08/16 01:16:11;;;;;;;16.83;12.05;;;;;;;20.87;76.87;99461.69;5128499;27;20478;-28
2022/08/16 01:18:45;;;;;;;17.05;12.48;;;;;;;20.85;75.89;99436.81;5128457;27;20027;-28
2022/08/16 01:21:29;;;;;;;14.80;11.38;;;;;;;21.01;75.46;99460.91;5128213;27;20027;-29
2022/08/16 01:24:04;;;;;;;15.18;11.32;;;;;;;20.85;75.78;99458.50;5129826;27;20513;-29
2022/08/16 01:26:32;;;;;;;15.35;11.15;;;;;;;20.64;76.15;99460.00;5128203;27;20025;-28
2022/08/16 01:29:01;;;;;;;18.25;11.23;;;;;;;20.79;75.07;99457.00;5129633;27;20027;-30
2022/08/16 01:31:28;;;;;;;16.63;11.68;;;;;;;20.74;74.83;99446.25;5128012;27;20134;-34
2022/08/16 01:33:53;;;;;;;15.32;10.88;;;;;;;20.55;76.12;99449.03;5128047;27;20027;-30
2022/08/16 01:36:20;;;;;;;14.55;10.52;;;;;;;20.67;75.51;99456.69;5128983;27;20410;-31
2022/08/16 01:38:49;;;;;;;15.00;11.15;;;;;;;21.01;73.75;99452.78;5128175;27;20015;-28
2022/08/16 01:41:18;;;;;;;14.07;11.50;;;;;;;20.97;74.93;99457.19;5129177;27;20379;-28
2022/08/16 01:43:46;;;;;;;17.48;12.00;;;;;;;20.83;74.72;99449.06;5127748;27;20023;-31
2022/08/16 01:46:36;;;;;;;15.35;11.18;;;;;;;20.86;74.58;99457.41;5129003;27;20149;-32
2022/08/16 01:49:13;;;;;;;16.23;11.80;;;;;;;20.75;74.63;99458.69;5127828;27;20065;-29
2022/08/16 01:51:40;;;;;;;15.98;11.80;;;;;;;20.62;75.86;99462.22;5128023;27;20031;-29
2022/08/16 01:54:06;;;;;;;15.55;11.13;;;;;;;20.35;76.13;99449.41;5127974;27;20528;-29
2022/08/16 01:56:34;;;;;;;16.55;12.02;;;;;;;20.09;77.57;99473.44;5127365;27;20039;-31
2022/08/16 01:59:02;;;;;;;15.25;11.50;;;;;;;19.97;78.60;99461.16;5127536;27;20034;-30
2022/08/16 02:01:29;;;;;;;13.95;11.00;;;;;;;20.20;77.49;99435.03;5127677;27;20099;-33
2022/08/16 02:03:56;;;;;;;14.00;11.10;;;;;;;20.07;78.81;99443.94;5127758;27;20104;-30
2022/08/16 02:06:21;;;;;;;18.90;12.18;;;;;;;20.35;77.17;99439.41;5128748;27;20031;-29
2022/08/16 02:08:47;;;;;;;18.70;11.50;;;;;;;20.25;77.67;99429.53;5127532;27;20391;-29
2022/08/16 02:11:12;;;;;;;19.02;12.65;;;;;;;20.38;77.37;99449.63;5128765;27;20058;-28
2022/08/16 02:13:41;;;;;;;21.33;12.52;;;;;;;20.20;78.73;99453.19;5128699;27;20040;-31
2022/08/16 02:16:11;;;;;;;18.27;12.48;;;;;;;20.07;79.52;99438.53;5128736;27;20167;-28
2022/08/16 02:18:37;;;;;;;17.63;13.13;;;;;;;20.21;80.30;99455.59;5127051;27;20023;-30
2022/08/16 02:21:04;;;;;;;16.80;12.93;;;;;;;20.14;80.39;99440.84;5128738;27;20106;-31
2022/08/16 02:23:32;;;;;;;18.38;13.30;;;;;;;20.12;81.17;99451.97;5128725;27;20027;-28
2022/08/16 02:25:57;;;;;;;16.65;12.63;;;;;;;20.41;79.57;99465.28;5127475;27;20513;-29
2022/08/16 02:28:23;;;;;;;19.00;13.65;;;;;;;20.30;78.99;99463.84;5126646;27;20027;-28
2022/08/16 02:30:49;;;;;;;20.42;12.27;;;;;;;19.94;80.93;99467.19;5128628;27;20114;-35
2022/08/16 02:33:15;;;;;;;15.90;10.80;;;;;;;19.70;82.52;99463.75;5128559;27;20102;-29
2022/08/16 02:35:41;;;;;;;16.52;11.68;;;;;;;19.84;80.48;99472.75;5127134;27;20036;-28
2022/08/16 02:38:07;;;;;;;16.35;12.05;;;;;;;19.73;80.56;99449.66;5128246;27;20028;-28
2022/08/16 02:40:34;;;;;;;14.40;11.23;;;;;;;20.18;78.65;99467.03;5128455;27;20076;-29
2022/08/16 02:42:59;;;;;;;15.13;11.50;;;;;;;20.39;77.18;99467.47;5128341;27;20410;-31
2022/08/16 02:45:26;;;;;;;18.52;11.35;;;;;;;20.29;77.23;99467.66;5128080;27;20051;-29
2022/08/16 02:47:53;;;;;;;18.25;11.05;;;;;;;20.47;76.32;99476.81;5126602;27;20051;-28
2022/08/16 02:50:19;;;;;;;14.60;10.50;;;;;;;20.26;76.77;99479.88;5126465;27;20042;-31
2022/08/16 02:52:45;;;;;;;15.00;10.80;;;;;;;20.42;74.62;99488.53;5128143;27;20035;-29
2022/08/16 02:55:12;;;;;;;14.70;10.70;;;;;;;19.94;76.05;99472.59;5126387;28;20030;-32
2022/08/16 02:57:38;;;;;;;15.13;10.80;;;;;;;19.92;75.72;99473.97;5126736;28;20039;-30
2022/08/16 03:00:10;;;;;;;15.18;10.80;;;;;;;20.05;75.36;99484.84;5126707;28;20023;-28
2022/08/16 03:02:36;;;;;;;15.90;11.45;;;;;;;20.18;74.44;99471.63;5126482;28;20171;-28
2022/08/16 03:05:03;;;;;;;16.17;11.43;;;;;;;20.20;74.05;99478.34;5126504;28;20110;-28
2022/08/16 03:07:29;;;;;;;16.92;11.25;;;;;;;20.14;73.79;99470.63;5109345;28;20028;-31
2022/08/16 03:09:56;;;;;;;14.40;10.40;;;;;;;20.02;74.49;99488.16;5126466;28;20031;-32
2022/08/16 03:12:22;;;;;;;16.38;11.63;;;;;;;19.89;75.36;99493.50;5126360;28;20027;-29
2022/08/16 03:14:47;;;;;;;18.60;12.52;;;;;;;19.81;77.02;99473.31;5127991;27;20407;-29
2022/08/16 03:17:13;;;;;;;14.20;11.68;;;;;;;19.81;77.84;99497.69;5126489;27;20031;-28
2022/08/16 03:19:39;;;;;;;17.10;11.95;;;;;;;19.81;77.26;99484.16;5127886;28;20031;-31
2022/08/16 03:22:04;;;;;;;15.32;11.63;;;;;;;19.61;78.00;99496.84;5127917;28;20617;-28
2022/08/16 03:24:30;;;;;;;18.30;12.00;;;;;;;19.79;78.37;99502.56;5127891;28;20490;-30
2022/08/16 03:27:00;;;;;;;15.30;11.43;;;;;;;19.55;79.25;99498.00;5127701;28;20482;-33
2022/08/16 03:29:28;;;;;;;18.27;11.73;;;;;;;19.89;77.45;99497.00;5126342;28;20570;-28
2022/08/16 03:31:53;;;;;;;17.17;11.45;;;;;;;20.12;76.07;99516.13;5125992;27;20505;-28
2022/08/16 03:34:19;;;;;;;17.98;12.00;;;;;;;20.03;76.22;99487.03;5127431;27;20031;-36
2022/08/16 03:36:45;;;;;;;18.35;11.57;;;;;;;19.70;77.73;99488.09;5125974;28;20043;-29
2022/08/16 03:39:11;;;;;;;16.48;12.27;;;;;;;19.68;77.94;99497.28;5108753;28;20027;-33
2022/08/16 03:41:37;;;;;;;16.85;12.18;;;;;;;19.97;77.24;99504.47;5127629;28;20508;-30
2022/08/16 03:44:03;;;;;;;18.67;12.38;;;;;;;19.80;78.27;99498.78;5127520;28;20023;-28
2022/08/16 03:46:29;;;;;;;23.10;13.15;;;;;;;20.12;77.02;99521.56;5125742;27;20043;-29
2022/08/16 03:48:54;;;;;;;22.63;14.35;;;;;;;19.98;77.95;99511.50;5127523;27;20053;-28
2022/08/16 03:51:20;;;;;;;19.08;12.50;;;;;;;19.76;78.48;99524.81;5131557;27;20036;-30
2022/08/16 03:53:45;;;;;;;17.58;12.50;;;;;;;19.67;77.93;99517.31;5131379;27;20039;-28
2022/08/16 03:56:11;;;;;;;20.83;13.23;;;;;;;19.79;78.53;99537.75;5131694;27;20031;-32
2022/08/16 03:58:36;;;;;;;22.80;12.88;;;;;;;20.06;77.86;99539.78;5131468;27;20058;-28
2022/08/16 04:01:03;;;;;;;20.45;13.63;;;;;;;19.99;78.06;99547.47;5131624;27;20486;-32
2022/08/16 04:03:30;;;;;;;18.83;13.73;;;;;;;20.10;77.76;99551.63;5129995;27;20027;-28
2022/08/16 04:05:56;;;;;;;18.73;13.68;;;;;;;20.00;78.53;99533.66;5129814;27;20035;-30
2022/08/16 04:08:22;;;;;;;17.17;11.90;;;;;;;19.73;79.32;99541.63;5129521;27;20027;-30
2022/08/16 04:10:49;;;;;;;19.98;12.65;;;;;;;19.36;80.16;99518.84;5131191;27;20051;-30
2022/08/16 04:13:14;;;;;;;16.27;11.70;;;;;;;19.40;80.12;99528.78;5131436;27;20102;-31
2022/08/16 04:15:40;;;;;;;18.67;12.15;;;;;;;19.40;79.86;99525.28;5131137;27;20463;-33
2022/08/16 04:18:06;;;;;;;18.55;12.45;;;;;;;19.45;80.64;99533.31;5131244;27;20023;-30
2022/08/16 04:20:32;;;;;;;17.40;12.80;;;;;;;19.23;82.04;99544.69;5130907;27;20554;-32
2022/08/16 04:22:58;;;;;;;18.23;12.80;;;;;;;19.41;81.50;99524.16;5130865;27;20027;-28
2022/08/16 04:25:24;;;;;;;18.42;13.73;;;;;;;19.86;78.83;99533.59;5129745;27;20554;-28
2022/08/16 04:27:50;;;;;;;20.05;14.25;;;;;;;20.08;77.48;99513.22;5129693;27;20123;-28
2022/08/16 04:30:17;;;;;;;23.52;15.27;;;;;;;20.41;76.63;99522.16;5129650;27;20031;-28
2022/08/16 04:32:44;;;;;;;19.42;15.15;;;;;;;20.60;76.64;99526.72;5129181;27;20031;-29
2022/08/16 04:35:15;;;;;;;22.15;15.40;;;;;;;20.26;79.09;99520.47;5129452;27;20490;-30
2022/08/16 04:37:42;;;;;;;22.58;16.23;;;;;;;20.63;78.04;99516.06;5129479;27;20034;-29
2022/08/16 04:40:09;;;;;;;23.95;16.50;;;;;;;20.55;79.24;99513.22;5129267;27;20542;-29
2022/08/16 04:42:38;;;;;;;20.30;16.55;;;;;;;20.50;80.51;99514.13;5128876;27;20035;-28
2022/08/16 04:45:05;;;;;;;22.40;17.08;;;;;;;20.78;79.39;99501.47;5128807;27;20019;-30
2022/08/16 04:47:31;;;;;;;25.67;17.38;;;;;;;20.98;78.26;99515.69;5130543;27;20091;-36
2022/08/16 04:49:57;;;;;;;24.90;17.25;;;;;;;21.31;76.76;99529.13;5129283;27;20120;-29
2022/08/16 04:52:23;;;;;;;21.55;16.77;;;;;;;21.30;77.67;99530.25;5130832;27;20031;-31
2022/08/16 04:54:48;;;;;;;22.45;17.80;;;;;;;21.43;77.12;99529.44;5128931;27;20034;-30
2022/08/16 04:57:14;;;;;;;24.50;18.92;;;;;;;21.46;76.45;99524.22;5130579;27;20031;-29
2022/08/16 04:59:40;;;;;;;25.48;18.52;;;;;;;21.59;75.74;99540.78;5130350;27;20122;-28
2022/08/16 05:02:06;;;;;;;24.75;17.63;;;;;;;21.57;76.79;99549.22;5128636;27;20054;-28
2022/08/16 05:04:31;;;;;;;25.05;19.17;;;;;;;21.56;77.39;99552.25;5128521;27;20489;-29
2022/08/16 05:06:57;;;;;;;26.08;19.73;;;;;;;21.40;77.62;99551.75;5130225;27;20027;-30
2022/08/16 05:09:23;;;;;;;26.08;20.30;;;;;;;21.27;79.03;99559.59;5128740;27;20031;-33
2022/08/16 05:11:49;;;;;;;24.65;19.35;;;;;;;21.29;78.68;99540.31;5129993;27;20038;-29
2022/08/16 05:14:14;;;;;;;23.08;18.95;;;;;;;21.54;77.19;99528.13;5128391;27;20031;-28
2022/08/16 05:16:40;;;;;;;24.27;18.73;;;;;;;21.67;76.70;99531.91;5129594;27;20134;-31
2022/08/16 05:19:07;;;;;;;24.35;18.25;;;;;;;21.95;75.93;99540.78;5129683;27;20030;-30
2022/08/16 05:21:34;;;;;;;23.80;19.10;;;;;;;22.05;75.83;99537.81;5129981;27;20031;-29
2022/08/16 05:24:00;;;;;;;22.95;17.67;;;;;;;22.12;75.65;99531.16;5129823;27;20042;-29
2022/08/16 05:26:27;;;;;;;21.60;17.55;;;;;;;22.25;74.70;99528.41;5128176;27;20023;-29
2022/08/16 05:28:54;;;;;;;23.67;17.40;;;;;;;22.45;74.48;99532.53;5128297;27;20035;-34
2022/08/16 05:31:19;;;;;;;24.20;16.95;;;;;;;22.50;73.55;99536.22;5129716;27;20031;-28
2022/08/16 05:33:45;;;;;;;21.10;16.83;;;;;;;22.64;73.15;99536.94;5129381;27;20436;-28
2022/08/16 05:36:10;;;;;;;21.73;16.65;;;;;;;22.53;73.10;99535.59;5129824;27;20403;-28
2022/08/16 05:38:36;;;;;;;22.35;17.42;;;;;;;22.95;72.05;99547.00;5129541;27;20063;-30
2022/08/16 05:41:02;;;;;;;22.65;16.38;;;;;;;23.01;72.00;99556.63;5128440;27;20031;-30
2022/08/16 05:43:28;;;;;;;18.20;15.07;;;;;;;23.05;70.46;99552.19;5127959;27;20024;-28
2022/08/16 05:45:54;;;;;;;20.90;16.20;;;;;;;23.14;70.79;99544.84;5129483;27;20049;-34
2022/08/16 05:48:20;;;;;;;20.95;15.82;;;;;;;23.24;70.81;99532.88;5127121;27;20134;-33
2022/08/16 05:50:46;;;;;;;21.10;16.60;;;;;;;23.18;71.79;99550.44;5128103;27;20027;-28
2022/08/16 05:53:12;;;;;;;20.13;15.77;;;;;;;23.35;71.19;99533.38;5129314;27;20575;-28
2022/08/16 05:55:38;;;;;;;19.20;15.02;;;;;;;23.57;70.29;99540.59;5127704;27;20015;-28
2022/08/16 05:58:03;;;;;;;18.92;14.80;;;;;;;23.73;68.69;99530.84;5127878;27;20027;-33
2022/08/16 06:00:30;;;;;;;16.90;14.65;;;;;;;23.65;68.06;99531.66;5129002;27;20027;-31
2022/08/16 06:02:56;;;;;;;17.42;14.23;;;;;;;23.82;67.67;99537.16;5127672;27;20478;-30
2022/08/16 06:05:23;;;;;;;17.42;12.95;;;;;;;23.95;66.09;99543.53;5127815;27;20027;-28
2022/08/16 06:07:48;;;;;;;15.80;13.60;;;;;;;24.19;66.24;99536.78;5127800;27;20039;-29
2022/08/16 06:10:14;;;;;;;16.58;12.25;;;;;;;24.15;61.97;99542.09;5127568;27;20035;-31
2022/08/16 06:12:41;;;;;;;14.30;12.07;;;;;;;24.19;62.15;99539.50;5126694;27;20059;-30
2022/08/16 06:15:12;;;;;;;15.73;12.70;;;;;;;24.36;61.89;99544.16;5127521;27;20114;-30
2022/08/16 06:17:37;;;;;;;14.68;12.10;;;;;;;24.47;61.56;99550.84;5127393;27;20068;-29
2022/08/16 06:20:04;;;;;;;16.67;12.82;;;;;;;24.53;60.96;99533.22;5129040;27;20022;-33
2022/08/16 06:22:30;;;;;;;15.60;13.20;;;;;;;24.77;61.57;99532.66;5128398;27;20113;-31
2022/08/16 06:24:56;;;;;;;14.48;12.55;;;;;;;24.84;60.04;99527.47;5128795;27;20110;-30
2022/08/16 06:27:21;;;;;;;15.73;12.48;;;;;;;24.79;60.94;99522.22;5127134;27;20027;-31
2022/08/16 06:29:47;;;;;;;16.73;12.98;;;;;;;24.95;60.29;99521.69;5128565;27;20463;-33
2022/08/16 06:32:12;;;;;;;16.77;12.45;;;;;;;25.05;59.50;99526.78;5126924;27;20020;-29
2022/08/16 06:34:38;;;;;;;16.73;13.85;;;;;;;25.01;59.72;99531.28;5128584;27;20570;-28
2022/08/16 06:37:04;;;;;;;16.63;12.88;;;;;;;24.93;59.62;99524.75;5128378;27;20055;-29
2022/08/16 06:39:30;;;;;;;16.88;13.23;;;;;;;25.11;60.01;99521.91;5127126;27;20035;-34
2022/08/16 06:41:56;;;;;;;20.13;14.00;;;;;;;25.38;59.34;99528.84;5128492;27;20409;-29
2022/08/16 06:44:21;;;;;;;16.48;13.25;;;;;;;25.22;57.77;99507.59;5126532;27;20114;-28
2022/08/16 06:46:47;;;;;;;17.75;14.05;;;;;;;25.38;58.40;99528.84;5126337;27;20130;-30
2022/08/16 06:49:12;;;;;;;17.30;14.27;;;;;;;25.36;58.88;99495.63;5128364;27;20859;-28
2022/08/16 06:51:40;;;;;;;16.80;14.70;;;;;;;25.46;57.71;99503.44;5128292;27;20058;-28
2022/08/16 06:54:06;;;;;;;16.60;13.93;;;;;;;25.64;58.28;99520.47;5126888;28;20512;-29
2022/08/16 06:56:33;;;;;;;17.30;13.93;;;;;;;25.77;57.02;99521.34;5126539;28;20043;-29
2022/08/16 06:58:59;;;;;;;16.88;13.45;;;;;;;25.89;57.69;99496.00;5126606;27;20117;-28
2022/08/16 07:01:25;;;;;;;16.55;13.38;;;;;;;25.91;54.71;99496.50;5128072;27;20029;-28
2022/08/16 07:03:50;;;;;;;16.05;12.98;;;;;;;25.97;55.48;99501.44;5128038;27;20441;-34
2022/08/16 07:06:18;;;;;;;15.95;13.38;;;;;;;26.37;55.46;99503.59;5126360;28;20075;-30
2022/08/16 07:08:45;;;;;;;19.10;13.85;;;;;;;26.40;55.17;99504.88;5127473;27;20049;-34
2022/08/16 07:11:12;;;;;;;16.75;14.07;;;;;;;26.59;55.43;99504.34;5126322;28;20059;-31
2022/08/16 07:13:38;;;;;;;18.50;14.60;;;;;;;26.69;55.69;99490.22;5126449;28;20076;-29
2022/08/16 07:16:05;;;;;;;19.85;13.52;;;;;;;26.92;54.57;99509.72;5126565;27;20118;-29
2022/08/16 07:18:31;;;;;;;16.70;13.97;;;;;;;26.82;53.45;99496.50;5126358;28;20032;-35
2022/08/16 07:20:57;;;;;;;18.20;13.23;;;;;;;26.88;53.88;99503.34;5126720;28;20397;-28
2022/08/16 07:23:25;;;;;;;18.20;14.75;;;;;;;27.06;53.30;99517.59;5128659;27;20537;-34
2022/08/16 07:25:53;;;;;;;15.50;12.93;;;;;;;27.13;52.88;99517.00;5130481;27;20061;-39
2022/08/16 07:28:19;;;;;;;19.63;14.38;;;;;;;26.98;52.86;99502.09;5130459;27;20561;-28
2022/08/16 07:30:45;;;;;;;18.13;14.18;;;;;;;27.30;53.50;99510.50;5130601;27;20122;-30
2022/08/16 07:33:13;;;;;;;18.20;15.45;;;;;;;27.25;52.75;99498.66;5130526;27;20045;-33
2022/08/16 07:35:39;;;;;;;21.08;15.40;;;;;;;27.56;51.75;99513.66;5130552;27;20035;-29
2022/08/16 07:38:06;;;;;;;15.38;13.65;;;;;;;27.42;52.88;99513.22;5131771;27;20110;-29
2022/08/16 07:40:33;;;;;;;22.08;16.65;;;;;;;27.29;53.23;99492.50;5130134;27;20036;-33
2022/08/16 07:42:59;;;;;;;;;;;;;;;27.59;52.11;99512.97;5130471;27;20569;-32
2022/08/16 07:45:25;;;;;;;17.70;14.70;;;;;;;27.77;51.74;99496.25;5130322;27;20373;-33
2022/08/16 07:47:50;;;;;;;18.90;15.52;;;;;;;28.04;52.16;99495.47;5131431;27;20038;-28
2022/08/16 07:50:16;;;;;;;17.48;14.50;;;;;;;28.34;50.14;99497.00;5131487;27;20027;-31
2022/08/16 07:52:44;;;;;;;18.55;13.93;;;;;;;28.40;49.27;99507.38;5131127;27;20045;-30
2022/08/16 07:55:12;;;;;;;15.93;13.55;;;;;;;28.51;49.56;99510.44;5130210;27;20046;-29
2022/08/16 07:57:38;;;;;;;19.20;13.60;;;;;;;28.65;48.87;99524.50;5129996;27;20152;-29
2022/08/16 08:00:05;;;;;;;18.52;14.52;;;;;;;28.69;48.78;99508.13;5129993;27;20122;-30
2022/08/16 08:02:31;;;;;;;19.98;14.52;;;;;;;28.90;49.25;99518.03;5130969;27;20072;-29
2022/08/16 08:04:57;;;;;;;16.48;13.45;;;;;;;29.07;47.81;99501.19;5131600;27;20035;-33
2022/08/16 08:07:23;;;;;;;18.08;14.70;;;;;;;29.12;47.27;99502.91;5129594;27;20027;-29
2022/08/16 08:09:50;;;;;;;18.00;15.20;;;;;;;29.22;47.18;99503.13;5129526;27;20027;-29
2022/08/16 08:12:18;;;;;;;16.67;14.47;;;;;;;28.96;47.78;99497.41;5129600;27;20070;-30
2022/08/16 08:14:44;;;;;;;25.88;21.40;;;;;;;28.86;47.67;99487.75;5129615;27;20122;-29
2022/08/16 08:17:10;;;;;;;16.65;13.57;;;;;;;28.92;49.12;99482.81;5129756;27;20027;-29
2022/08/16 08:19:36;;;;;;;18.65;14.35;;;;;;;29.30;47.81;99486.81;5131587;27;20019;-32
2022/08/16 08:22:03;;;;;;;17.88;14.52;;;;;;;29.51;47.14;99498.25;5129601;27;20063;-28
2022/08/16 08:24:31;;;;;;;15.35;13.30;;;;;;;29.73;45.53;99488.53;5129451;27;20079;-29
2022/08/16 08:26:58;;;;;;;16.27;12.60;;;;;;;29.92;46.26;99484.97;5129505;27;20031;-31
2022/08/16 08:29:24;;;;;;;15.05;11.88;;;;;;;30.21;45.07;99474.50;5131073;27;20490;-32
2022/08/16 08:31:50;;;;;;;15.10;12.48;;;;;;;30.40;45.24;99477.25;5129287;27;20054;-30
2022/08/16 08:34:17;;;;;;;15.63;12.55;;;;;;;30.12;44.34;99484.94;5129473;27;20033;-33
2022/08/16 08:36:42;;;;;;;15.63;12.15;;;;;;;30.40;44.41;99499.25;5128193;27;20553;-34
2022/08/16 08:39:08;;;;;;;15.05;11.80;;;;;;;30.57;44.06;99480.66;5130471;27;20037;-36
2022/08/16 08:41:33;;;;;;;14.35;11.85;;;;;;;30.87;43.31;99477.97;5130622;27;20028;-29
2022/08/16 08:43:59;;;;;;;13.30;10.20;;;;;;;30.92;41.34;99474.94;5130416;27;20019;-36
2022/08/16 08:46:25;;;;;;;13.55;10.88;;;;;;;30.81;41.83;99469.25;5129717;27;20395;-30
2022/08/16 08:48:53;;;;;;;13.25;10.05;;;;;;;30.74;40.99;99455.38;5130409;27;20103;-37
2022/08/16 08:51:19;;;;;;;12.85;10.63;;;;;;;30.74;40.89;99458.13;5130374;27;20513;-29
2022/08/16 08:53:45;;;;;;;11.77;9.57;;;;;;;30.64;40.36;99476.03;5130045;27;20034;-33
2022/08/16 08:56:12;;;;;;;11.95;9.60;;;;;;;30.51;41.59;99471.13;5129008;27;20509;-29
2022/08/16 08:58:38;;;;;;;12.82;9.82;;;;;;;30.65;40.50;99468.59;5127536;27;20034;-29
2022/08/16 09:01:05;;;;;;;11.90;8.85;;;;;;;30.73;40.23;99455.72;5128651;27;20047;-30
2022/08/16 09:03:33;;;;;;;9.70;8.70;;;;;;;30.80;39.50;99459.38;5128300;27;20030;-28
2022/08/16 09:05:59;;;;;;;11.15;7.60;;;;;;;30.81;38.77;99469.25;5128514;27;20023;-34
2022/08/16 09:08:25;;;;;;;9.73;6.88;;;;;;;30.92;38.93;99468.66;5127907;27;20027;-30
2022/08/16 09:10:54;;;;;;;9.70;7.73;;;;;;;30.99;37.03;99468.75;5129759;27;20027;-36
2022/08/16 09:13:20;;;;;;;10.07;7.72;;;;;;;30.86;36.99;99467.34;5128424;27;20200;-30
2022/08/16 09:15:47;;;;;;;8.15;6.55;;;;;;;30.93;36.36;99464.72;5128233;27;20473;-30
2022/08/16 09:18:16;;;;;;;9.02;7.20;;;;;;;31.45;36.16;99471.38;5129750;27;20037;-32
2022/08/16 09:20:43;;;;;;;8.88;6.70;;;;;;;31.77;35.94;99462.66;5127836;27;20444;-32
2022/08/16 09:23:09;;;;;;;8.60;6.95;;;;;;;32.15;34.24;99469.03;5129119;27;20038;-32
2022/08/16 09:25:35;;;;;;;9.13;6.30;;;;;;;31.95;34.38;99462.88;5129956;27;20035;-34
2022/08/16 09:28:03;;;;;;;8.35;6.45;;;;;;;31.97;34.15;99450.28;5129531;27;20038;-29
2022/08/16 09:30:28;;;;;;;;;;;;;;;32.17;33.01;99470.22;5129871;27;20019;-32
2022/08/16 09:32:54;;;;;;;8.60;6.45;;;;;;;32.35;34.15;99467.63;5128132;27;20393;-32
2022/08/16 09:35:23;;;;;;;9.63;6.30;;;;;;;32.61;33.94;99454.84;5127823;27;20035;-29
2022/08/16 09:37:48;;;;;;;8.23;6.13;;;;;;;32.85;34.09;99453.44;5127513;27;20091;-30
2022/08/16 09:40:14;;;;;;;8.25;6.45;;;;;;;32.59;34.11;99443.38;5129525;27;20057;-33
2022/08/16 09:42:40;;;;;;;9.32;5.97;;;;;;;32.71;33.32;99454.13;5129223;27;20459;-30
2022/08/16 09:45:07;;;;;;;9.43;6.78;;;;;;;32.88;33.77;99457.41;5128827;27;20519;-29
2022/08/16 09:47:39;;;;;;;7.05;5.68;;;;;;;32.86;32.87;99454.25;5128058;27;20031;-29
2022/08/16 09:50:08;;;;;;;7.70;6.40;;;;;;;32.78;32.90;99447.88;5127552;27;20135;-32
2022/08/16 09:52:36;;;;;;;7.30;5.80;;;;;;;32.56;32.69;99430.38;5127222;27;20027;-29
2022/08/16 09:55:05;;;;;;;8.00;6.50;;;;;;;32.94;32.60;99447.59;5127704;27;20039;-30
2022/08/16 09:57:31;;;;;;;9.07;6.22;;;;;;;33.35;32.97;99452.97;5127263;27;20085;-31
2022/08/16 09:59:59;;;;;;;8.40;5.72;;;;;;;33.33;31.73;99447.81;5127446;27;20406;-36
2022/08/16 10:02:25;;;;;;;7.43;5.70;;;;;;;33.35;31.01;99442.69;5127024;27;20041;-29
2022/08/16 10:04:51;;;;;;;7.18;5.60;;;;;;;33.26;30.84;99453.31;5128779;27;20106;-34
2022/08/16 10:07:17;;;;;;;8.20;6.03;;;;;;;32.92;31.54;99425.88;5128653;27;20106;-31
2022/08/16 10:09:46;;;;;;;9.32;5.05;;;;;;;33.26;29.56;99433.19;5128576;27;20079;-29
2022/08/16 10:14:55;;;;;;;5.72;4.30;;;;;;;33.45;28.94;99445.88;5128786;27;20088;-34
2022/08/16 10:17:21;;;;;;;7.07;4.90;;;;;;;33.34;30.76;99443.06;5128689;27;20039;-30
2022/08/16 10:19:46;;;;;;;6.70;5.60;;;;;;;33.68;30.96;99432.56;5128591;27;20023;-31
2022/08/16 10:22:12;;;;;;;9.15;5.57;;;;;;;33.97;30.57;99441.72;5128524;27;20015;-30
2022/08/16 10:24:39;;;;;;;7.20;5.18;;;;;;;34.23;30.46;99417.66;5126761;27;20069;-29
2022/08/16 10:27:06;;;;;;;7.57;5.43;;;;;;;34.59;29.89;99435.06;5127028;27;20122;-35
2022/08/16 10:29:31;;;;;;;8.43;6.10;;;;;;;34.53;29.95;99420.03;5126890;27;20413;-30
2022/08/16 10:31:57;;;;;;;6.22;5.03;;;;;;;34.31;28.85;99424.78;5127248;27;20023;-32
2022/08/16 10:34:22;;;;;;;6.55;5.00;;;;;;;34.44;30.04;99432.69;5128373;27;20011;-39
2022/08/16 10:36:48;;;;;;;8.20;5.22;;;;;;;34.47;28.70;99416.09;5127013;27;20432;-29
2022/08/16 10:39:14;;;;;;;8.40;5.72;;;;;;;34.83;28.16;99418.03;5128319;27;20031;-29
2022/08/16 10:41:39;;;;;;;7.38;5.05;;;;;;;34.88;27.70;99412.88;5128274;27;20054;-32
2022/08/16 10:44:05;;;;;;;7.20;4.93;;;;;;;34.88;28.37;99425.91;5127979;27;20027;-30
2022/08/16 10:46:31;;;;;;;7.35;4.80;;;;;;;34.44;27.98;99427.94;5127685;27;20757;-31
2022/08/16 10:48:56;;;;;;;8.05;4.88;;;;;;;34.49;27.34;99427.56;5127820;27;20413;-30
2022/08/16 10:51:22;;;;;;;6.65;4.47;;;;;;;34.70;27.45;99426.75;5128093;27;20034;-30
2022/08/16 10:53:48;;;;;;;6.80;4.77;;;;;;;34.76;27.66;99439.00;5128120;27;20030;-31
2022/08/16 10:56:13;;;;;;;6.53;4.25;;;;;;;34.86;27.94;99431.06;5128003;27;20023;-29
2022/08/16 10:58:40;;;;;;;7.43;5.32;;;;;;;34.90;27.90;99431.84;5127053;27;20143;-37
2022/08/16 11:01:07;;;;;;;6.82;5.60;;;;;;;35.47;27.87;99428.94;5126787;28;20016;-29
2022/08/16 11:03:34;;;;;;;7.20;4.80;;;;;;;35.25;28.03;99435.72;5126407;28;20130;-31
2022/08/16 11:06:00;;;;;;;;;;;;;;;35.13;27.96;99423.88;5123496;28;20547;-33
2022/08/16 11:08:26;;;;;;;6.97;4.67;;;;;;;35.28;26.98;99423.84;5126097;28;20009;-34
2022/08/16 11:10:52;;;;;;;7.07;4.90;;;;;;;35.50;27.85;99430.88;5128192;27;20023;-30
2022/08/16 11:13:21;;;;;;;7.50;5.20;;;;;;;35.32;27.11;99414.31;5126409;27;20106;-31
2022/08/16 11:15:46;;;;;;;8.00;4.95;;;;;;;35.36;27.82;99408.75;5126784;28;20459;-29
2022/08/16 11:18:13;;;;;;;8.23;5.20;;;;;;;35.40;26.37;99398.44;5127838;27;20063;-31
2022/08/16 11:20:41;;;;;;;8.45;6.93;;;;;;;35.50;26.82;99414.25;5126317;27;20509;-28